Sacramento, California
Traffic Map
Current Weather Conditions
Sacramento, California
Clear
Clear

Feels Like: 6°
Wind Chill: Ceiling: Unl
Heat Index: Visibility: 7mi
Dew Point: Wind: 0mph
Humidity: 92% Direction: ° ()
Pressure: 30.35in Gusts: 0mph
Raw Report DataKSAC 261553Z 00000KT 7SM CLR 06/04 A3035 RMK AO2 SLP278 T00560044
Traffic Incident Summary
Active as of:
Severity:
Category:
InformationThere was an issue retrieving the traffic information for this location. Please try a different location or try again shortly.
Advertisements
Track Severe Weather on mobile